sensor_id;sensor_type;location;lat;lon;timestamp;pressure;altitude;pressure_sealevel;temperature;humidity
3102;BME280;1561;42.666;23.392;2024-01-06T00:02:36;95019.06;;;6.52;100.00
3102;BME280;1561;42.666;23.392;2024-01-06T00:05:06;95008.28;;;6.48;100.00
3102;BME280;1561;42.666;23.392;2024-01-06T00:07:35;95019.97;;;6.38;100.00
3102;BME280;1561;42.666;23.392;2024-01-06T00:10:04;95023.81;;;6.31;100.00
3102;BME280;1561;42.666;23.392;2024-01-06T00:12:34;94896.81;;;5.86;100.00
3102;BME280;1561;42.666;23.392;2024-01-06T00:15:04;95003.31;;;6.47;100.00
3102;BME280;1561;42.666;23.392;2024-01-06T00:17:36;94992.56;;;6.43;100.00
3102;BME280;1561;42.666;23.392;2024-01-06T00:20:06;94996.66;;;6.33;100.00
3102;BME280;1561;42.666;23.392;2024-01-06T00:22:33;94865.53;;;5.37;100.00
3102;BME280;1561;42.666;23.392;2024-01-06T00:25:05;95006.50;;;6.25;100.00
3102;BME280;1561;42.666;23.392;2024-01-06T00:27:35;95029.81;;;6.30;100.00
3102;BME280;1561;42.666;23.392;2024-01-06T00:30:06;95026.16;;;6.34;100.00
3102;BME280;1561;42.666;23.392;2024-01-06T00:32:36;95011.69;;;6.36;100.00
3102;BME280;1561;42.666;23.392;2024-01-06T00:35:08;94986.22;;;6.25;100.00
3102;BME280;1561;42.666;23.392;2024-01-06T00:37:38;95020.09;;;6.24;100.00
3102;BME280;1561;42.666;23.392;2024-01-06T00:40:08;95029.84;;;6.18;100.00
3102;BME280;1561;42.666;23.392;2024-01-06T00:42:42;95022.66;;;6.12;100.00
3102;BME280;1561;42.666;23.392;2024-01-06T00:45:11;95029.44;;;6.11;100.00
3102;BME280;1561;42.666;23.392;2024-01-06T00:47:45;95017.78;;;5.96;100.00
3102;BME280;1561;42.666;23.392;2024-01-06T00:50:14;95027.28;;;5.93;100.00
3102;BME280;1561;42.666;23.392;2024-01-06T00:52:44;95012.09;;;5.93;100.00
3102;BME280;1561;42.666;23.392;2024-01-06T00:55:12;94989.38;;;5.91;100.00
3102;BME280;1561;42.666;23.392;2024-01-06T00:57:44;94972.53;;;5.65;100.00
3102;BME280;1561;42.666;23.392;2024-01-06T01:00:13;95022.44;;;5.90;100.00
3102;BME280;1561;42.666;23.392;2024-01-06T01:02:52;95004.81;;;5.88;100.00
3102;BME280;1561;42.666;23.392;2024-01-06T01:05:23;94990.53;;;5.73;100.00
3102;BME280;1561;42.666;23.392;2024-01-06T01:07:57;94984.69;;;5.73;100.00
3102;BME280;1561;42.666;23.392;2024-01-06T01:10:26;95003.38;;;5.84;100.00
3102;BME280;1561;42.666;23.392;2024-01-06T01:13:07;95008.00;;;5.65;100.00
3102;BME280;1561;42.666;23.392;2024-01-06T01:15:37;95008.59;;;5.69;100.00
3102;BME280;1561;42.666;23.392;2024-01-06T01:18:07;95003.94;;;5.75;100.00
3102;BME280;1561;42.666;23.392;2024-01-06T01:20:37;95008.94;;;5.89;100.00
3102;BME280;1561;42.666;23.392;2024-01-06T01:23:19;94989.84;;;5.59;100.00
3102;BME280;1561;42.666;23.392;2024-01-06T01:25:47;94982.81;;;5.50;100.00
3102;BME280;1561;42.666;23.392;2024-01-06T01:28:23;94996.94;;;5.66;100.00
3102;BME280;1561;42.666;23.392;2024-01-06T01:30:52;94997.50;;;5.45;100.00
3102;BME280;1561;42.666;23.392;2024-01-06T01:33:22;95002.19;;;5.51;100.00
3102;BME280;1561;42.666;23.392;2024-01-06T01:36:03;94986.66;;;5.43;100.00
3102;BME280;1561;42.666;23.392;2024-01-06T01:38:37;94960.50;;;5.30;100.00
3102;BME280;1561;42.666;23.392;2024-01-06T01:41:06;94964.47;;;5.46;100.00
3102;BME280;1561;42.666;23.392;2024-01-06T01:43:54;94979.09;;;5.55;100.00
3102;BME280;1561;42.666;23.392;2024-01-06T01:46:28;94978.78;;;5.60;100.00
3102;BME280;1561;42.666;23.392;2024-01-06T01:48:59;94959.81;;;5.28;100.00
3102;BME280;1561;42.666;23.392;2024-01-06T01:51:37;94954.94;;;5.37;100.00
3102;BME280;1561;42.666;23.392;2024-01-06T01:54:06;94950.66;;;5.25;100.00
3102;BME280;1561;42.666;23.392;2024-01-06T01:56:37;94976.81;;;5.38;100.00
3102;BME280;1561;42.666;23.392;2024-01-06T01:59:10;94942.13;;;5.14;100.00
3102;BME280;1561;42.666;23.392;2024-01-06T02:01:39;94937.22;;;5.25;100.00
3102;BME280;1561;42.666;23.392;2024-01-06T02:04:09;94971.97;;;5.35;100.00
3102;BME280;1561;42.666;23.392;2024-01-06T02:06:40;94980.91;;;5.53;100.00
3102;BME280;1561;42.666;23.392;2024-01-06T02:09:09;94944.47;;;5.17;100.00
3102;BME280;1561;42.666;23.392;2024-01-06T02:11:44;94968.13;;;5.42;100.00
3102;BME280;1561;42.666;23.392;2024-01-06T02:14:18;94968.16;;;5.55;100.00
3102;BME280;1561;42.666;23.392;2024-01-06T02:16:45;94947.56;;;5.47;100.00
3102;BME280;1561;42.666;23.392;2024-01-06T02:19:17;94941.38;;;5.76;100.00
3102;BME280;1561;42.666;23.392;2024-01-06T02:21:53;94940.06;;;5.58;100.00
3102;BME280;1561;42.666;23.392;2024-01-06T02:24:20;94925.00;;;5.81;100.00
3102;BME280;1561;42.666;23.392;2024-01-06T02:26:55;94930.94;;;6.18;100.00
3102;BME280;1561;42.666;23.392;2024-01-06T02:29:25;94921.69;;;6.29;100.00
3102;BME280;1561;42.666;23.392;2024-01-06T02:31:53;94935.56;;;6.72;100.00
3102;BME280;1561;42.666;23.392;2024-01-06T02:34:25;94917.44;;;6.53;100.00
3102;BME280;1561;42.666;23.392;2024-01-06T02:36:55;94931.81;;;6.29;100.00
3102;BME280;1561;42.666;23.392;2024-01-06T02:39:22;94931.19;;;5.90;100.00
3102;BME280;1561;42.666;23.392;2024-01-06T02:42:02;94936.22;;;5.77;100.00
3102;BME280;1561;42.666;23.392;2024-01-06T02:44:32;94919.41;;;5.76;100.00
3102;BME280;1561;42.666;23.392;2024-01-06T02:47:01;94914.94;;;6.05;100.00
3102;BME280;1561;42.666;23.392;2024-01-06T02:49:30;94921.19;;;6.24;100.00
3102;BME280;1561;42.666;23.392;2024-01-06T02:52:01;94876.84;;;5.69;100.00
3102;BME280;1561;42.666;23.392;2024-01-06T02:54:32;94931.28;;;5.88;100.00
3102;BME280;1561;42.666;23.392;2024-01-06T02:56:59;94922.38;;;5.83;100.00
3102;BME280;1561;42.666;23.392;2024-01-06T02:59:31;94906.63;;;5.90;100.00
3102;BME280;1561;42.666;23.392;2024-01-06T03:02:03;94913.91;;;6.07;100.00
3102;BME280;1561;42.666;23.392;2024-01-06T03:04:37;94909.72;;;6.19;100.00
3102;BME280;1561;42.666;23.392;2024-01-06T03:07:10;94899.97;;;6.25;100.00
3102;BME280;1561;42.666;23.392;2024-01-06T03:09:40;94904.69;;;6.42;100.00
3102;BME280;1561;42.666;23.392;2024-01-06T03:12:09;94898.13;;;6.40;100.00
3102;BME280;1561;42.666;23.392;2024-01-06T03:14:38;94907.13;;;6.44;100.00
3102;BME280;1561;42.666;23.392;2024-01-06T03:17:10;94904.22;;;6.37;100.00
3102;BME280;1561;42.666;23.392;2024-01-06T03:19:39;94909.69;;;6.31;100.00
3102;BME280;1561;42.666;23.392;2024-01-06T03:22:08;94890.63;;;6.02;100.00
3102;BME280;1561;42.666;23.392;2024-01-06T03:24:40;94895.25;;;6.21;100.00
3102;BME280;1561;42.666;23.392;2024-01-06T03:27:08;94892.03;;;6.42;100.00
3102;BME280;1561;42.666;23.392;2024-01-06T03:29:36;94873.81;;;6.48;100.00
3102;BME280;1561;42.666;23.392;2024-01-06T03:32:06;94902.19;;;6.66;100.00
3102;BME280;1561;42.666;23.392;2024-01-06T03:34:40;94908.09;;;6.54;100.00
3102;BME280;1561;42.666;23.392;2024-01-06T03:37:20;94880.06;;;6.32;100.00
3102;BME280;1561;42.666;23.392;2024-01-06T03:39:53;94872.19;;;6.24;100.00
3102;BME280;1561;42.666;23.392;2024-01-06T03:42:24;94910.16;;;6.49;100.00
3102;BME280;1561;42.666;23.392;2024-01-06T03:44:53;94887.88;;;6.29;100.00
3102;BME280;1561;42.666;23.392;2024-01-06T03:47:21;94897.66;;;6.22;100.00
3102;BME280;1561;42.666;23.392;2024-01-06T03:49:52;94906.25;;;6.32;100.00
3102;BME280;1561;42.666;23.392;2024-01-06T03:52:24;94826.69;;;5.61;100.00
3102;BME280;1561;42.666;23.392;2024-01-06T03:54:51;94895.00;;;5.88;100.00
3102;BME280;1561;42.666;23.392;2024-01-06T03:57:22;94888.91;;;5.90;100.00
3102;BME280;1561;42.666;23.392;2024-01-06T03:59:51;94808.38;;;5.45;100.00
3102;BME280;1561;42.666;23.392;2024-01-06T04:02:22;94896.41;;;5.92;100.00
3102;BME280;1561;42.666;23.392;2024-01-06T04:04:53;94895.59;;;5.91;100.00
3102;BME280;1561;42.666;23.392;2024-01-06T04:07:37;94897.81;;;5.96;100.00
3102;BME280;1561;42.666;23.392;2024-01-06T04:10:07;94904.22;;;6.01;100.00
3102;BME280;1561;42.666;23.392;2024-01-06T04:12:38;94903.00;;;5.94;100.00
3102;BME280;1561;42.666;23.392;2024-01-06T04:15:17;94883.84;;;5.90;100.00
3102;BME280;1561;42.666;23.392;2024-01-06T04:17:49;94896.84;;;6.22;100.00
3102;BME280;1561;42.666;23.392;2024-01-06T04:20:19;94861.88;;;6.14;100.00
3102;BME280;1561;42.666;23.392;2024-01-06T04:22:53;94809.53;;;5.90;100.00
3102;BME280;1561;42.666;23.392;2024-01-06T04:25:23;94889.28;;;6.45;100.00
3102;BME280;1561;42.666;23.392;2024-01-06T04:27:55;94903.97;;;6.53;100.00
3102;BME280;1561;42.666;23.392;2024-01-06T04:30:25;94897.47;;;6.49;100.00
3102;BME280;1561;42.666;23.392;2024-01-06T04:32:56;94898.84;;;6.29;100.00
3102;BME280;1561;42.666;23.392;2024-01-06T04:35:30;94904.47;;;6.22;100.00
3102;BME280;1561;42.666;23.392;2024-01-06T04:38:12;94922.31;;;6.20;100.00
3102;BME280;1561;42.666;23.392;2024-01-06T04:40:39;94933.44;;;6.30;100.00
3102;BME280;1561;42.666;23.392;2024-01-06T04:43:14;94922.31;;;6.20;100.00
3102;BME280;1561;42.666;23.392;2024-01-06T04:45:43;94923.13;;;6.08;100.00
3102;BME280;1561;42.666;23.392;2024-01-06T04:48:21;94903.59;;;6.10;100.00
3102;BME280;1561;42.666;23.392;2024-01-06T04:50:53;94915.59;;;6.32;100.00
3102;BME280;1561;42.666;23.392;2024-01-06T04:53:24;94902.84;;;6.21;100.00
3102;BME280;1561;42.666;23.392;2024-01-06T04:55:54;94877.44;;;5.97;100.00
3102;BME280;1561;42.666;23.392;2024-01-06T04:58:27;94929.34;;;6.17;100.00
3102;BME280;1561;42.666;23.392;2024-01-06T05:00:57;94906.81;;;6.12;100.00
3102;BME280;1561;42.666;23.392;2024-01-06T05:03:24;94861.94;;;5.89;100.00
3102;BME280;1561;42.666;23.392;2024-01-06T05:05:56;94926.25;;;6.24;100.00
3102;BME280;1561;42.666;23.392;2024-01-06T05:08:31;94870.44;;;6.01;100.00
3102;BME280;1561;42.666;23.392;2024-01-06T05:11:05;94916.94;;;6.12;100.00
3102;BME280;1561;42.666;23.392;2024-01-06T05:13:34;94893.94;;;6.15;100.00
3102;BME280;1561;42.666;23.392;2024-01-06T05:16:07;94895.41;;;6.30;100.00
3102;BME280;1561;42.666;23.392;2024-01-06T05:18:37;94901.09;;;6.21;100.00
3102;BME280;1561;42.666;23.392;2024-01-06T05:21:11;94907.44;;;6.03;100.00
3102;BME280;1561;42.666;23.392;2024-01-06T05:23:46;94901.63;;;6.14;100.00
3102;BME280;1561;42.666;23.392;2024-01-06T05:26:16;94910.69;;;6.05;100.00
3102;BME280;1561;42.666;23.392;2024-01-06T05:28:47;94871.19;;;5.65;100.00
3102;BME280;1561;42.666;23.392;2024-01-06T05:31:17;94885.44;;;5.79;100.00
3102;BME280;1561;42.666;23.392;2024-01-06T05:33:45;94875.19;;;6.05;100.00
3102;BME280;1561;42.666;23.392;2024-01-06T05:36:18;94893.25;;;6.01;100.00
3102;BME280;1561;42.666;23.392;2024-01-06T05:38:50;94891.25;;;5.81;100.00
3102;BME280;1561;42.666;23.392;2024-01-06T05:41:20;94879.63;;;6.14;100.00
3102;BME280;1561;42.666;23.392;2024-01-06T05:43:49;94883.59;;;6.18;100.00
3102;BME280;1561;42.666;23.392;2024-01-06T05:46:22;94892.56;;;6.22;100.00
3102;BME280;1561;42.666;23.392;2024-01-06T05:48:54;94873.34;;;6.07;100.00
3102;BME280;1561;42.666;23.392;2024-01-06T05:51:28;94877.13;;;6.02;100.00
3102;BME280;1561;42.666;23.392;2024-01-06T05:54:05;94881.50;;;6.00;100.00
3102;BME280;1561;42.666;23.392;2024-01-06T05:56:36;94879.66;;;6.02;100.00
3102;BME280;1561;42.666;23.392;2024-01-06T05:59:04;94857.16;;;5.85;100.00
3102;BME280;1561;42.666;23.392;2024-01-06T06:01:32;94864.47;;;5.89;100.00
3102;BME280;1561;42.666;23.392;2024-01-06T06:04:01;94873.88;;;5.87;100.00
3102;BME280;1561;42.666;23.392;2024-01-06T06:06:32;94866.91;;;5.91;100.00
3102;BME280;1561;42.666;23.392;2024-01-06T06:09:10;94866.00;;;5.79;100.00
3102;BME280;1561;42.666;23.392;2024-01-06T06:11:54;94867.41;;;5.71;100.00
3102;BME280;1561;42.666;23.392;2024-01-06T06:14:25;94859.59;;;5.86;100.00
3102;BME280;1561;42.666;23.392;2024-01-06T06:16:56;94877.63;;;5.94;100.00
3102;BME280;1561;42.666;23.392;2024-01-06T06:19:25;94867.41;;;5.96;100.00
3102;BME280;1561;42.666;23.392;2024-01-06T06:21:54;94839.75;;;5.68;100.00
3102;BME280;1561;42.666;23.392;2024-01-06T06:24:29;94869.16;;;5.83;100.00
3102;BME280;1561;42.666;23.392;2024-01-06T06:27:01;94873.97;;;5.98;100.00
3102;BME280;1561;42.666;23.392;2024-01-06T06:29:37;94868.81;;;5.87;100.00
3102;BME280;1561;42.666;23.392;2024-01-06T06:32:11;94781.16;;;5.24;100.00
3102;BME280;1561;42.666;23.392;2024-01-06T06:34:38;94874.19;;;5.95;100.00
3102;BME280;1561;42.666;23.392;2024-01-06T06:37:08;94883.88;;;6.14;100.00
3102;BME280;1561;42.666;23.392;2024-01-06T06:39:37;94861.81;;;6.03;100.00
3102;BME280;1561;42.666;23.392;2024-01-06T06:42:11;94881.25;;;6.15;100.00
3102;BME280;1561;42.666;23.392;2024-01-06T06:44:39;94876.81;;;6.06;100.00
3102;BME280;1561;42.666;23.392;2024-01-06T06:47:12;94868.31;;;5.82;100.00
3102;BME280;1561;42.666;23.392;2024-01-06T06:49:51;94885.59;;;6.13;100.00
3102;BME280;1561;42.666;23.392;2024-01-06T06:52:33;94859.47;;;6.13;100.00
3102;BME280;1561;42.666;23.392;2024-01-06T06:55:10;94876.03;;;6.29;100.00
3102;BME280;1561;42.666;23.392;2024-01-06T06:57:38;94877.72;;;6.65;100.00
3102;BME280;1561;42.666;23.392;2024-01-06T07:00:07;94849.47;;;6.22;100.00
3102;BME280;1561;42.666;23.392;2024-01-06T07:02:45;94879.38;;;6.53;100.00
3102;BME280;1561;42.666;23.392;2024-01-06T07:05:28;94880.31;;;6.52;100.00
3102;BME280;1561;42.666;23.392;2024-01-06T07:08:01;94872.97;;;6.60;100.00
3102;BME280;1561;42.666;23.392;2024-01-06T07:10:36;94875.19;;;6.65;100.00
3102;BME280;1561;42.666;23.392;2024-01-06T07:13:05;94873.13;;;6.70;100.00
3102;BME280;1561;42.666;23.392;2024-01-06T07:15:35;94869.28;;;6.88;100.00
3102;BME280;1561;42.666;23.392;2024-01-06T07:18:06;94874.16;;;7.02;100.00
3102;BME280;1561;42.666;23.392;2024-01-06T07:20:38;94873.69;;;6.97;100.00
3102;BME280;1561;42.666;23.392;2024-01-06T07:23:05;94867.59;;;7.10;100.00
3102;BME280;1561;42.666;23.392;2024-01-06T07:25:38;94862.59;;;7.43;100.00
3102;BME280;1561;42.666;23.392;2024-01-06T07:28:07;94863.78;;;7.61;100.00
3102;BME280;1561;42.666;23.392;2024-01-06T07:30:35;94861.03;;;7.64;100.00
3102;BME280;1561;42.666;23.392;2024-01-06T07:33:03;94878.81;;;7.97;100.00
3102;BME280;1561;42.666;23.392;2024-01-06T07:35:33;94870.81;;;8.13;100.00
3102;BME280;1561;42.666;23.392;2024-01-06T07:38:07;94873.81;;;8.18;100.00
3102;BME280;1561;42.666;23.392;2024-01-06T07:40:54;94854.88;;;8.11;100.00
3102;BME280;1561;42.666;23.392;2024-01-06T07:43:30;94879.97;;;7.93;100.00
3102;BME280;1561;42.666;23.392;2024-01-06T07:46:05;94849.91;;;7.98;100.00
3102;BME280;1561;42.666;23.392;2024-01-06T07:48:36;94835.09;;;7.81;100.00
3102;BME280;1561;42.666;23.392;2024-01-06T07:51:06;94874.19;;;7.91;100.00
3102;BME280;1561;42.666;23.392;2024-01-06T07:53:35;94859.28;;;7.98;100.00
3102;BME280;1561;42.666;23.392;2024-01-06T07:56:27;94863.63;;;8.18;100.00
3102;BME280;1561;42.666;23.392;2024-01-06T07:58:57;94867.16;;;8.70;100.00
3102;BME280;1561;42.666;23.392;2024-01-06T08:01:35;94828.47;;;8.97;100.00
3102;BME280;1561;42.666;23.392;2024-01-06T08:04:06;94860.66;;;8.24;100.00
3102;BME280;1561;42.666;23.392;2024-01-06T08:06:38;94855.09;;;8.08;100.00
3102;BME280;1561;42.666;23.392;2024-01-06T08:09:21;94887.13;;;7.77;100.00
3102;BME280;1561;42.666;23.392;2024-01-06T08:12:06;94860.19;;;8.08;100.00
3102;BME280;1561;42.666;23.392;2024-01-06T08:14:56;94842.84;;;8.13;100.00
3102;BME280;1561;42.666;23.392;2024-01-06T08:17:30;94858.09;;;8.35;100.00
3102;BME280;1561;42.666;23.392;2024-01-06T08:20:00;94887.25;;;7.98;100.00
3102;BME280;1561;42.666;23.392;2024-01-06T08:22:50;94855.69;;;8.22;100.00
3102;BME280;1561;42.666;23.392;2024-01-06T08:25:19;94849.06;;;8.31;100.00
3102;BME280;1561;42.666;23.392;2024-01-06T08:28:01;94853.50;;;7.85;100.00
3102;BME280;1561;42.666;23.392;2024-01-06T08:30:45;94849.78;;;8.33;100.00
3102;BME280;1561;42.666;23.392;2024-01-06T08:33:21;94884.25;;;8.26;100.00
3102;BME280;1561;42.666;23.392;2024-01-06T08:35:50;94841.09;;;8.35;100.00
3102;BME280;1561;42.666;23.392;2024-01-06T08:38:22;94875.69;;;8.16;100.00
3102;BME280;1561;42.666;23.392;2024-01-06T08:41:06;94870.38;;;7.86;100.00
3102;BME280;1561;42.666;23.392;2024-01-06T08:43:54;94835.09;;;7.81;100.00
3102;BME280;1561;42.666;23.392;2024-01-06T08:46:30;94867.00;;;9.03;100.00
3102;BME280;1561;42.666;23.392;2024-01-06T08:49:15;94863.00;;;8.58;100.00
3102;BME280;1561;42.666;23.392;2024-01-06T08:51:45;94846.31;;;8.34;100.00
3102;BME280;1561;42.666;23.392;2024-01-06T08:54:26;94860.66;;;10.20;100.00
3102;BME280;1561;42.666;23.392;2024-01-06T08:57:02;94858.09;;;10.88;100.00
3102;BME280;1561;42.666;23.392;2024-01-06T08:59:37;94766.06;;;11.16;100.00
3102;BME280;1561;42.666;23.392;2024-01-06T09:02:06;94853.91;;;11.90;100.00
3102;BME280;1561;42.666;23.392;2024-01-06T09:04:34;94854.50;;;11.74;100.00
3102;BME280;1561;42.666;23.392;2024-01-06T09:07:04;94836.34;;;10.25;100.00
3102;BME280;1561;42.666;23.392;2024-01-06T09:09:31;94839.78;;;10.73;100.00
3102;BME280;1561;42.666;23.392;2024-01-06T09:12:00;94797.19;;;10.64;100.00
3102;BME280;1561;42.666;23.392;2024-01-06T09:14:47;94827.78;;;10.36;100.00
3102;BME280;1561;42.666;23.392;2024-01-06T09:17:18;94849.63;;;10.87;100.00
3102;BME280;1561;42.666;23.392;2024-01-06T09:19:46;94829.59;;;10.83;100.00
3102;BME280;1561;42.666;23.392;2024-01-06T09:22:17;94817.41;;;10.18;100.00
3102;BME280;1561;42.666;23.392;2024-01-06T09:24:45;94818.31;;;10.08;100.00
3102;BME280;1561;42.666;23.392;2024-01-06T09:27:13;94795.78;;;9.43;100.00
3102;BME280;1561;42.666;23.392;2024-01-06T09:29:46;94812.09;;;10.01;100.00
3102;BME280;1561;42.666;23.392;2024-01-06T09:32:24;94800.09;;;10.22;100.00
3102;BME280;1561;42.666;23.392;2024-01-06T09:34:58;94811.66;;;10.35;100.00
3102;BME280;1561;42.666;23.392;2024-01-06T09:37:44;94732.41;;;9.39;100.00
3102;BME280;1561;42.666;23.392;2024-01-06T09:40:36;94785.56;;;9.23;100.00
3102;BME280;1561;42.666;23.392;2024-01-06T09:43:11;94692.22;;;8.91;100.00
3102;BME280;1561;42.666;23.392;2024-01-06T09:45:53;94772.13;;;9.41;100.00
3102;BME280;1561;42.666;23.392;2024-01-06T09:48:35;94781.03;;;9.56;100.00
3102;BME280;1561;42.666;23.392;2024-01-06T09:51:11;94768.31;;;9.96;100.00
3102;BME280;1561;42.666;23.392;2024-01-06T09:53:48;94637.13;;;8.60;100.00
3102;BME280;1561;42.666;23.392;2024-01-06T09:56:37;94770.03;;;9.86;100.00
3102;BME280;1561;42.666;23.392;2024-01-06T09:59:14;94770.75;;;10.07;100.00
3102;BME280;1561;42.666;23.392;2024-01-06T10:02:17;94743.75;;;9.25;100.00
3102;BME280;1561;42.666;23.392;2024-01-06T10:04:49;94760.81;;;9.64;100.00
3102;BME280;1561;42.666;23.392;2024-01-06T10:07:23;94752.59;;;9.00;100.00
3102;BME280;1561;42.666;23.392;2024-01-06T10:09:55;94762.34;;;9.16;100.00
3102;BME280;1561;42.666;23.392;2024-01-06T10:12:26;94730.78;;;9.07;100.00
3102;BME280;1561;42.666;23.392;2024-01-06T10:14:58;94756.78;;;9.02;100.00
3102;BME280;1561;42.666;23.392;2024-01-06T10:17:43;94737.16;;;9.23;100.00
3102;BME280;1561;42.666;23.392;2024-01-06T10:20:12;94741.28;;;9.14;100.00
3102;BME280;1561;42.666;23.392;2024-01-06T10:22:41;94722.44;;;9.26;100.00
3102;BME280;1561;42.666;23.392;2024-01-06T10:25:11;94726.13;;;9.43;100.00
3102;BME280;1561;42.666;23.392;2024-01-06T10:27:41;94724.94;;;9.17;100.00
3102;BME280;1561;42.666;23.392;2024-01-06T10:30:13;94694.00;;;9.31;100.00
3102;BME280;1561;42.666;23.392;2024-01-06T10:32:47;94710.72;;;9.54;100.00
3102;BME280;1561;42.666;23.392;2024-01-06T10:35:19;94718.66;;;10.19;100.00
3102;BME280;1561;42.666;23.392;2024-01-06T10:37:47;94696.94;;;9.66;100.00
3102;BME280;1561;42.666;23.392;2024-01-06T10:40:16;94710.78;;;9.73;100.00
3102;BME280;1561;42.666;23.392;2024-01-06T10:42:50;94501.94;;;8.63;100.00
3102;BME280;1561;42.666;23.392;2024-01-06T10:45:18;94714.22;;;9.53;100.00
3102;BME280;1561;42.666;23.392;2024-01-06T10:47:57;94685.38;;;9.52;100.00
3102;BME280;1561;42.666;23.392;2024-01-06T10:50:31;94698.97;;;9.81;100.00
3102;BME280;1561;42.666;23.392;2024-01-06T10:52:59;94689.25;;;9.56;100.00
3102;BME280;1561;42.666;23.392;2024-01-06T10:55:33;94666.31;;;9.56;100.00
3102;BME280;1561;42.666;23.392;2024-01-06T10:58:08;94671.06;;;9.89;100.00
3102;BME280;1561;42.666;23.392;2024-01-06T11:00:45;94679.72;;;10.17;100.00
3102;BME280;1561;42.666;23.392;2024-01-06T11:03:21;94673.91;;;9.96;100.00
3102;BME280;1561;42.666;23.392;2024-01-06T11:05:50;94674.13;;;9.55;100.00
3102;BME280;1561;42.666;23.392;2024-01-06T11:08:21;94658.88;;;9.83;100.00
3102;BME280;1561;42.666;23.392;2024-01-06T11:10:52;94629.03;;;9.65;100.00
3102;BME280;1561;42.666;23.392;2024-01-06T11:13:25;94654.44;;;9.95;100.00
3102;BME280;1561;42.666;23.392;2024-01-06T11:15:57;94563.91;;;9.32;100.00
3102;BME280;1561;42.666;23.392;2024-01-06T11:18:47;94637.94;;;10.27;100.00
3102;BME280;1561;42.666;23.392;2024-01-06T11:21:20;94639.25;;;10.50;100.00
3102;BME280;1561;42.666;23.392;2024-01-06T11:24:16;94654.69;;;10.58;100.00
3102;BME280;1561;42.666;23.392;2024-01-06T11:26:50;94513.34;;;9.75;100.00
3102;BME280;1561;42.666;23.392;2024-01-06T11:29:20;94632.81;;;10.92;100.00
3102;BME280;1561;42.666;23.392;2024-01-06T11:32:19;94625.22;;;11.10;100.00
3102;BME280;1561;42.666;23.392;2024-01-06T11:34:53;94621.97;;;11.89;100.00
3102;BME280;1561;42.666;23.392;2024-01-06T11:37:25;94604.72;;;11.91;100.00
3102;BME280;1561;42.666;23.392;2024-01-06T11:40:25;94605.66;;;11.90;100.00
3102;BME280;1561;42.666;23.392;2024-01-06T11:43:07;94580.72;;;12.52;100.00
3102;BME280;1561;42.666;23.392;2024-01-06T11:45:37;94594.09;;;12.21;100.00
3102;BME280;1561;42.666;23.392;2024-01-06T11:48:25;94580.88;;;11.73;100.00
3102;BME280;1561;42.666;23.392;2024-01-06T11:51:14;94559.75;;;12.31;100.00
3102;BME280;1561;42.666;23.392;2024-01-06T11:53:45;94566.38;;;11.99;100.00
3102;BME280;1561;42.666;23.392;2024-01-06T11:56:22;94551.56;;;13.86;100.00
3102;BME280;1561;42.666;23.392;2024-01-06T11:58:51;94552.53;;;13.85;100.00
3102;BME280;1561;42.666;23.392;2024-01-06T12:01:22;94550.75;;;13.93;100.00
3102;BME280;1561;42.666;23.392;2024-01-06T12:03:56;94538.63;;;13.38;100.00
3102;BME280;1561;42.666;23.392;2024-01-06T12:06:31;94539.88;;;12.84;100.00
3102;BME280;1561;42.666;23.392;2024-01-06T12:09:09;94519.34;;;13.10;100.00
3102;BME280;1561;42.666;23.392;2024-01-06T12:11:46;94544.75;;;12.19;100.00
3102;BME280;1561;42.666;23.392;2024-01-06T12:14:17;94516.28;;;12.39;100.00
3102;BME280;1561;42.666;23.392;2024-01-06T12:17:11;94453.09;;;11.54;100.00
3102;BME280;1561;42.666;23.392;2024-01-06T12:19:43;94505.84;;;11.72;100.00
3102;BME280;1561;42.666;23.392;2024-01-06T12:22:19;94501.16;;;12.28;100.00
3102;BME280;1561;42.666;23.392;2024-01-06T12:24:58;94491.59;;;12.72;100.00
3102;BME280;1561;42.666;23.392;2024-01-06T12:27:33;94503.78;;;11.93;100.00
3102;BME280;1561;42.666;23.392;2024-01-06T12:30:13;94525.81;;;11.69;100.00
3102;BME280;1561;42.666;23.392;2024-01-06T12:32:48;94535.47;;;11.75;100.00
3102;BME280;1561;42.666;23.392;2024-01-06T12:35:22;94551.84;;;11.82;100.00
3102;BME280;1561;42.666;23.392;2024-01-06T12:37:55;94529.25;;;11.60;100.00
3102;BME280;1561;42.666;23.392;2024-01-06T12:40:24;94515.88;;;11.83;100.00
3102;BME280;1561;42.666;23.392;2024-01-06T12:42:55;94518.22;;;11.77;100.00
3102;BME280;1561;42.666;23.392;2024-01-06T12:45:54;94491.19;;;11.74;100.00
3102;BME280;1561;42.666;23.392;2024-01-06T12:48:29;94507.28;;;11.67;100.00
3102;BME280;1561;42.666;23.392;2024-01-06T12:50:59;94499.81;;;12.50;100.00
3102;BME280;1561;42.666;23.392;2024-01-06T12:53:36;94503.56;;;13.78;100.00
3102;BME280;1561;42.666;23.392;2024-01-06T12:56:08;94502.75;;;13.78;100.00
3102;BME280;1561;42.666;23.392;2024-01-06T12:58:53;94493.00;;;13.89;100.00
3102;BME280;1561;42.666;23.392;2024-01-06T13:01:25;94499.69;;;13.34;100.00
3102;BME280;1561;42.666;23.392;2024-01-06T13:03:58;94462.25;;;13.00;100.00
3102;BME280;1561;42.666;23.392;2024-01-06T13:06:35;94457.50;;;12.38;100.00
3102;BME280;1561;42.666;23.392;2024-01-06T13:12:33;94471.59;;;12.75;100.00
3102;BME280;1561;42.666;23.392;2024-01-06T13:15:05;94483.97;;;12.88;100.00
3102;BME280;1561;42.666;23.392;2024-01-06T13:17:38;94485.09;;;12.85;100.00
3102;BME280;1561;42.666;23.392;2024-01-06T13:20:12;94458.97;;;12.82;100.00
3102;BME280;1561;42.666;23.392;2024-01-06T13:22:48;94486.81;;;13.18;100.00
3102;BME280;1561;42.666;23.392;2024-01-06T13:25:42;94452.66;;;12.68;100.00
3102;BME280;1561;42.666;23.392;2024-01-06T13:28:38;94486.22;;;12.83;100.00
3102;BME280;1561;42.666;23.392;2024-01-06T13:31:11;94469.47;;;12.63;100.00
3102;BME280;1561;42.666;23.392;2024-01-06T13:33:42;94474.09;;;12.59;100.00
3102;BME280;1561;42.666;23.392;2024-01-06T13:36:23;94469.47;;;12.63;100.00
3102;BME280;1561;42.666;23.392;2024-01-06T13:38:51;94481.97;;;12.66;100.00
3102;BME280;1561;42.666;23.392;2024-01-06T13:41:19;94468.34;;;12.57;100.00
3102;BME280;1561;42.666;23.392;2024-01-06T13:43:49;94447.56;;;12.35;100.00
3102;BME280;1561;42.666;23.392;2024-01-06T13:46:16;94443.25;;;12.35;100.00